createdAt,value
2022-12-12T00:01:30.726Z,18.57
2022-12-12T00:03:57.920Z,19.50
2022-12-12T00:06:25.028Z,20.93
2022-12-12T00:08:52.331Z,18.57
2022-12-12T00:11:20.565Z,19.73
2022-12-12T00:13:47.684Z,20.30
2022-12-12T00:16:15.345Z,19.57
2022-12-12T00:18:42.567Z,23.10
2022-12-12T00:21:22.973Z,21.43
2022-12-12T00:23:49.891Z,24.20
2022-12-12T00:26:22.444Z,21.87
2022-12-12T00:28:49.742Z,22.63
2022-12-12T00:31:17.072Z,21.27
2022-12-12T00:33:44.971Z,19.40
2022-12-12T00:36:12.455Z,21.93
2022-12-12T00:38:40.026Z,20.90
2022-12-12T00:41:06.782Z,20.50
2022-12-12T00:43:33.834Z,21.20
2022-12-12T00:46:01.550Z,22.17
2022-12-12T00:48:28.798Z,19.57
2022-12-12T00:50:56.502Z,19.87
2022-12-12T00:53:23.646Z,21.43
2022-12-12T00:55:59.841Z,21.27
2022-12-12T00:58:27.124Z,20.43
2022-12-12T01:00:54.139Z,20.43
2022-12-12T01:03:21.763Z,19.97
2022-12-12T01:05:49.208Z,20.43
2022-12-12T01:08:16.089Z,18.87
2022-12-12T01:10:42.878Z,18.93
2022-12-12T01:13:09.567Z,20.07
2022-12-12T01:15:36.290Z,20.43
2022-12-12T01:18:03.096Z,19.97
2022-12-12T01:20:29.876Z,20.77
2022-12-12T01:22:57.359Z,18.87
2022-12-12T01:25:24.203Z,19.00
2022-12-12T01:27:51.386Z,21.87
2022-12-12T01:30:21.846Z,20.37
2022-12-12T01:32:49.397Z,23.00
2022-12-12T01:35:16.213Z,22.20
2022-12-12T01:37:43.207Z,21.10
2022-12-12T01:40:20.097Z,21.47
2022-12-12T01:42:47.561Z,20.43
2022-12-12T01:46:03.719Z,18.67
2022-12-12T01:48:45.881Z,20.60
2022-12-12T01:51:19.807Z,19.20
2022-12-12T01:53:49.798Z,20.33
2022-12-12T01:56:21.044Z,19.73
2022-12-12T01:58:51.227Z,21.47
2022-12-12T02:01:19.149Z,20.77
2022-12-12T02:03:48.735Z,21.37
2022-12-12T02:06:24.780Z,20.70
2022-12-12T02:08:55.068Z,21.77
2022-12-12T02:11:21.786Z,20.93
2022-12-12T02:13:49.449Z,21.10
2022-12-12T02:16:43.526Z,20.40
2022-12-12T02:19:54.710Z,19.40
2022-12-12T02:23:04.046Z,20.13
2022-12-12T02:25:53.321Z,20.53
2022-12-12T02:28:35.360Z,20.53
2022-12-12T02:31:15.453Z,20.73
2022-12-12T02:34:07.424Z,20.17
2022-12-12T02:37:07.051Z,19.80
2022-12-12T02:39:52.170Z,18.40
2022-12-12T02:42:49.214Z,19.10
2022-12-12T02:45:49.469Z,18.77
2022-12-12T02:49:05.801Z,19.60
2022-12-12T02:51:34.480Z,20.87
2022-12-12T02:54:16.806Z,19.40
2022-12-12T02:56:54.555Z,18.77
2022-12-12T02:59:33.313Z,19.00
2022-12-12T03:02:35.756Z,19.70
2022-12-12T03:05:26.728Z,19.87
2022-12-12T03:08:30.591Z,20.07
2022-12-12T03:11:05.684Z,19.73
2022-12-12T03:13:53.920Z,19.67
2022-12-12T03:16:30.457Z,18.33
2022-12-12T03:19:24.396Z,19.53
2022-12-12T03:22:24.284Z,19.80
2022-12-12T03:25:11.041Z,20.50
2022-12-12T03:27:48.275Z,18.63
2022-12-12T03:30:18.162Z,19.50
2022-12-12T03:33:11.885Z,19.33
2022-12-12T03:35:46.358Z,18.77
2022-12-12T03:38:23.289Z,18.93
2022-12-12T03:40:58.227Z,16.67
2022-12-12T03:43:42.568Z,21.43
2022-12-12T03:46:30.062Z,18.40
2022-12-12T03:49:15.405Z,21.67
2022-12-12T03:51:58.896Z,17.60
2022-12-12T03:54:38.644Z,19.60
2022-12-12T03:57:15.713Z,18.67
2022-12-12T03:59:54.862Z,17.03
2022-12-12T04:02:55.249Z,18.63
2022-12-12T04:06:03.826Z,18.23
2022-12-12T04:08:31.135Z,17.83
2022-12-12T04:11:32.455Z,19.23
2022-12-12T04:15:01.342Z,19.90
2022-12-12T04:17:47.528Z,18.13
2022-12-12T04:21:05.009Z,18.87
2022-12-12T04:24:05.570Z,19.13
2022-12-12T04:26:52.821Z,20.03
2022-12-12T04:29:48.902Z,18.70
2022-12-12T04:32:40.445Z,17.23
2022-12-12T04:35:23.988Z,18.80
2022-12-12T04:38:21.320Z,18.43
2022-12-12T04:40:54.910Z,18.93
2022-12-12T04:43:33.783Z,19.60
2022-12-12T04:46:08.006Z,18.20
2022-12-12T04:48:44.091Z,18.13
2022-12-12T04:51:16.527Z,19.87
2022-12-12T04:53:54.662Z,18.80
2022-12-12T04:56:28.287Z,19.70
2022-12-12T04:58:55.656Z,17.50
2022-12-12T05:01:35.397Z,20.20
2022-12-12T05:04:09.732Z,19.33
2022-12-12T05:06:45.913Z,18.90
2022-12-12T05:09:16.462Z,18.20
2022-12-12T05:11:44.100Z,17.83
2022-12-12T05:14:15.390Z,17.87
2022-12-12T05:16:48.949Z,18.37
2022-12-12T05:19:16.087Z,19.27
2022-12-12T05:21:42.749Z,18.80
2022-12-12T05:24:09.956Z,18.10
2022-12-12T05:26:37.196Z,19.30
2022-12-12T05:29:07.789Z,18.40
2022-12-12T05:31:35.783Z,19.00
2022-12-12T05:34:03.493Z,17.27
2022-12-12T05:36:30.294Z,19.47
2022-12-12T05:38:57.466Z,20.20
2022-12-12T05:41:24.209Z,18.30
2022-12-12T05:43:50.873Z,18.73
2022-12-12T05:46:17.704Z,17.73
2022-12-12T05:48:50.418Z,17.27
2022-12-12T05:51:18.591Z,17.63
2022-12-12T05:53:47.262Z,18.47
2022-12-12T05:56:14.091Z,18.13
2022-12-12T05:58:42.013Z,21.00
2022-12-12T06:01:10.195Z,17.90
2022-12-12T06:03:36.959Z,17.53
2022-12-12T06:06:03.990Z,19.03
2022-12-12T06:08:30.882Z,17.80
2022-12-12T06:10:57.757Z,19.07
2022-12-12T06:13:24.507Z,17.23
2022-12-12T06:15:51.290Z,16.73
2022-12-12T06:18:18.041Z,17.80
2022-12-12T06:20:44.848Z,18.13
2022-12-12T06:23:11.496Z,17.07
2022-12-12T06:25:38.258Z,17.03
2022-12-12T06:28:04.997Z,16.60
2022-12-12T06:30:32.156Z,15.87
2022-12-12T06:32:58.984Z,16.10
2022-12-12T06:35:25.759Z,16.23
2022-12-12T06:37:52.466Z,17.73
2022-12-12T06:40:20.097Z,17.67
2022-12-12T06:42:48.843Z,15.90
2022-12-12T06:45:17.033Z,17.10
2022-12-12T06:47:44.171Z,16.43
2022-12-12T06:50:11.313Z,16.73
2022-12-12T06:52:38.030Z,16.47
2022-12-12T06:55:05.422Z,16.43
2022-12-12T06:57:32.055Z,15.53
2022-12-12T06:59:58.834Z,16.10
2022-12-12T07:02:29.534Z,14.60
2022-12-12T07:04:58.539Z,14.97
2022-12-12T07:07:25.344Z,14.23
2022-12-12T07:09:52.343Z,15.67
2022-12-12T07:12:19.028Z,13.30
2022-12-12T07:14:45.791Z,13.93
2022-12-12T07:17:12.433Z,14.40
2022-12-12T07:19:39.232Z,13.47
2022-12-12T07:22:09.793Z,12.27
2022-12-12T07:24:37.810Z,12.57
2022-12-12T07:27:04.844Z,13.23
2022-12-12T07:29:32.555Z,12.63
2022-12-12T07:31:59.166Z,10.13
2022-12-12T07:34:30.201Z,12.43
2022-12-12T07:37:02.625Z,12.63
2022-12-12T07:39:32.413Z,12.13
2022-12-12T07:41:59.708Z,11.27
2022-12-12T07:44:26.664Z,12.43
2022-12-12T07:46:53.627Z,11.90
2022-12-12T07:49:20.377Z,11.40
2022-12-12T07:51:49.168Z,12.27
2022-12-12T07:54:16.606Z,11.90
2022-12-12T07:56:43.321Z,14.33
2022-12-12T07:59:10.001Z,12.27
2022-12-12T08:01:36.938Z,12.57
2022-12-12T08:04:06.469Z,11.27
2022-12-12T08:06:33.155Z,11.93
2022-12-12T08:08:59.817Z,11.57
2022-12-12T08:11:26.691Z,11.63
2022-12-12T08:13:54.011Z,11.17
2022-12-12T08:16:27.355Z,10.53
2022-12-12T08:18:56.580Z,10.90
2022-12-12T08:21:26.239Z,11.07
2022-12-12T08:23:58.847Z,11.23
2022-12-12T08:26:26.252Z,11.33
2022-12-12T08:28:53.579Z,10.83
2022-12-12T08:31:21.432Z,10.47
2022-12-12T08:33:50.773Z,11.07
2022-12-12T08:36:24.455Z,10.33
2022-12-12T08:38:51.877Z,9.57
2022-12-12T08:41:19.670Z,10.23
2022-12-12T08:43:46.344Z,10.63
2022-12-12T08:46:17.909Z,8.93
2022-12-12T08:48:46.953Z,10.67
2022-12-12T08:51:15.255Z,11.03
2022-12-12T08:53:45.753Z,9.63
2022-12-12T08:56:13.015Z,9.80
2022-12-12T08:58:39.864Z,11.17
2022-12-12T09:01:15.637Z,10.30
2022-12-12T09:03:42.794Z,10.17
2022-12-12T09:06:10.457Z,10.20
2022-12-12T09:08:38.569Z,11.70
2022-12-12T09:11:05.947Z,10.67
2022-12-12T09:13:33.172Z,10.83
2022-12-12T09:16:00.168Z,11.50
2022-12-12T09:18:27.602Z,10.80
2022-12-12T09:20:57.791Z,12.13
2022-12-12T09:23:26.398Z,11.70
2022-12-12T09:25:54.103Z,9.23
2022-12-12T09:28:24.177Z,11.10
2022-12-12T09:30:51.324Z,10.20
2022-12-12T09:33:19.558Z,11.13
2022-12-12T09:35:46.591Z,12.27
2022-12-12T09:38:14.927Z,11.67
2022-12-12T09:41:00.467Z,11.10
2022-12-12T09:43:54.287Z,11.90
2022-12-12T09:46:47.087Z,12.30
2022-12-12T09:49:46.785Z,11.30
2022-12-12T09:52:32.087Z,10.83
2022-12-12T09:55:24.650Z,13.00
2022-12-12T09:58:24.148Z,11.57
2022-12-12T10:01:23.804Z,11.50
2022-12-12T10:04:20.367Z,10.20
2022-12-12T10:06:55.589Z,9.80
2022-12-12T10:09:46.932Z,11.43
2022-12-12T10:12:16.907Z,10.90
2022-12-12T10:15:08.021Z,11.77
2022-12-12T10:17:44.528Z,11.50
2022-12-12T10:20:53.290Z,11.60
2022-12-12T10:23:44.200Z,12.33
2022-12-12T10:26:18.542Z,11.47
2022-12-12T10:28:49.381Z,11.40
2022-12-12T10:31:44.071Z,10.93
2022-12-12T10:34:29.136Z,11.37
2022-12-12T10:37:11.812Z,11.10
2022-12-12T10:40:12.518Z,11.93
2022-12-12T10:43:19.468Z,10.00
2022-12-12T10:46:22.404Z,10.60
2022-12-12T10:48:49.874Z,11.70
2022-12-12T10:51:20.941Z,11.90
2022-12-12T10:53:47.776Z,12.10
2022-12-12T10:56:24.673Z,11.50
2022-12-12T10:58:59.790Z,10.67
2022-12-12T11:02:07.787Z,11.60
2022-12-12T11:04:21.061Z,11.37
2022-12-12T11:06:56.234Z,11.77
2022-12-12T11:09:27.261Z,12.20
2022-12-12T11:12:04.806Z,13.17
2022-12-12T11:14:40.100Z,11.53
2022-12-12T11:17:33.125Z,13.17
2022-12-12T11:20:05.922Z,13.43
2022-12-12T11:22:33.648Z,13.40
2022-12-12T11:25:00.939Z,11.73
2022-12-12T11:27:40.985Z,12.40
2022-12-12T11:30:22.831Z,12.27
2022-12-12T11:32:55.204Z,11.93
2022-12-12T11:35:33.471Z,14.77
2022-12-12T11:38:15.255Z,14.57
2022-12-12T11:40:44.129Z,12.93
2022-12-12T11:43:25.267Z,13.43
2022-12-12T11:46:13.742Z,14.13
2022-12-12T11:48:52.280Z,13.73
2022-12-12T11:51:43.100Z,14.23
2022-12-12T11:54:19.092Z,12.83
2022-12-12T11:57:04.668Z,13.83
2022-12-12T11:59:49.423Z,12.07
2022-12-12T12:02:46.778Z,12.00
2022-12-12T12:05:39.355Z,13.37
2022-12-12T12:08:24.307Z,11.27
2022-12-12T12:11:15.139Z,10.37
2022-12-12T12:14:06.414Z,10.03
2022-12-12T12:17:05.163Z,10.87
2022-12-12T12:19:43.897Z,10.77
2022-12-12T12:22:56.556Z,11.07
2022-12-12T12:25:59.888Z,10.90
2022-12-12T12:29:11.498Z,11.37
2022-12-12T12:32:33.818Z,11.10
2022-12-12T12:35:23.936Z,10.73
2022-12-12T12:38:25.181Z,11.17
2022-12-12T12:41:09.152Z,9.57
2022-12-12T12:43:44.698Z,9.67
2022-12-12T12:46:29.764Z,11.23
2022-12-12T12:49:05.223Z,11.67
2022-12-12T12:51:45.547Z,10.50
2022-12-12T12:54:25.908Z,11.67
2022-12-12T12:57:18.152Z,9.90
2022-12-12T12:59:51.343Z,10.70
2022-12-12T13:02:57.727Z,11.57
2022-12-12T13:05:45.811Z,11.70
2022-12-12T13:08:47.263Z,12.87
2022-12-12T13:11:26.758Z,11.47
2022-12-12T13:13:59.290Z,12.70
2022-12-12T13:16:32.874Z,10.57
2022-12-12T13:19:15.015Z,12.30
2022-12-12T13:21:56.907Z,12.60
2022-12-12T13:24:51.585Z,13.20
2022-12-12T13:27:29.851Z,13.47
2022-12-12T13:30:01.119Z,14.43
2022-12-12T13:33:17.150Z,14.37
2022-12-12T13:35:49.614Z,14.43
2022-12-12T13:38:29.925Z,15.57
2022-12-12T13:41:04.403Z,15.13
2022-12-12T13:43:34.105Z,14.87
2022-12-12T13:46:21.706Z,14.53
2022-12-12T13:49:05.621Z,14.77
2022-12-12T13:51:44.452Z,15.20
2022-12-12T13:54:13.563Z,15.23
2022-12-12T13:57:05.278Z,14.67
2022-12-12T13:59:53.605Z,16.07
2022-12-12T14:02:41.594Z,14.43
2022-12-12T14:05:09.990Z,15.97
2022-12-12T14:07:37.832Z,17.20
2022-12-12T14:10:26.715Z,15.00
2022-12-12T14:12:54.975Z,14.20
2022-12-12T14:15:30.211Z,14.90
2022-12-12T14:18:02.691Z,15.77
2022-12-12T14:20:37.154Z,15.70
2022-12-12T14:23:21.511Z,14.80
2022-12-12T14:25:48.374Z,16.07
2022-12-12T14:28:23.891Z,16.30
2022-12-12T14:31:16.432Z,15.83
2022-12-12T14:34:23.658Z,14.07
2022-12-12T14:37:31.661Z,15.83
2022-12-12T14:40:28.027Z,14.93
2022-12-12T14:43:20.402Z,15.07
2022-12-12T14:45:57.776Z,16.07
2022-12-12T14:48:28.715Z,15.40
2022-12-12T14:51:29.002Z,15.70
2022-12-12T14:54:00.260Z,15.10
2022-12-12T14:56:36.704Z,15.33
2022-12-12T14:59:08.165Z,13.87
2022-12-12T15:01:40.640Z,16.23
2022-12-12T15:04:14.436Z,14.97
2022-12-12T15:06:49.323Z,15.10
2022-12-12T15:09:25.032Z,14.53
2022-12-12T15:11:55.328Z,16.33
2022-12-12T15:14:27.757Z,16.20
2022-12-12T15:16:59.509Z,16.93
2022-12-12T15:19:30.580Z,17.23
2022-12-12T15:21:58.661Z,16.27
2022-12-12T15:24:34.852Z,15.30
2022-12-12T15:27:01.647Z,16.53
2022-12-12T15:29:31.260Z,16.07
2022-12-12T15:32:06.906Z,18.33
2022-12-12T15:34:35.775Z,16.03
2022-12-12T15:37:27.034Z,17.17
2022-12-12T15:40:12.225Z,17.60
2022-12-12T15:42:46.459Z,15.13
2022-12-12T15:45:25.668Z,14.93
2022-12-12T15:47:55.331Z,13.77
2022-12-12T15:50:53.676Z,17.07
2022-12-12T15:53:23.622Z,17.77
2022-12-12T15:56:08.122Z,16.60
2022-12-12T15:58:46.762Z,18.23
2022-12-12T16:01:20.897Z,16.07
2022-12-12T16:04:21.746Z,15.47
2022-12-12T16:06:49.303Z,15.23
2022-12-12T16:09:26.608Z,14.53
2022-12-12T16:11:58.669Z,17.83
2022-12-12T16:14:41.649Z,17.17
2022-12-12T16:17:24.843Z,15.53
2022-12-12T16:20:04.351Z,16.53
2022-12-12T16:22:45.312Z,17.10
2022-12-12T16:25:30.184Z,16.17
2022-12-12T16:28:25.016Z,16.73
2022-12-12T16:31:00.323Z,17.63
2022-12-12T16:33:35.086Z,17.90
2022-12-12T16:36:07.738Z,17.37
2022-12-12T16:38:35.979Z,17.10
2022-12-12T16:41:08.668Z,17.70
2022-12-12T16:43:35.491Z,19.07
2022-12-12T16:46:02.282Z,18.10
2022-12-12T16:48:40.331Z,18.73
2022-12-12T16:51:09.482Z,15.90
2022-12-12T16:53:37.048Z,18.40
2022-12-12T16:56:04.854Z,14.07
2022-12-12T16:58:32.227Z,16.37
2022-12-12T17:01:00.311Z,18.13
2022-12-12T17:03:27.404Z,18.77
2022-12-12T17:05:54.251Z,17.80
2022-12-12T17:08:20.989Z,19.33
2022-12-12T17:10:50.583Z,15.97
2022-12-12T17:13:23.180Z,17.77
2022-12-12T17:15:55.118Z,17.60
2022-12-12T17:18:23.141Z,17.17
2022-12-12T17:20:50.224Z,17.47
2022-12-12T17:23:30.338Z,16.57
2022-12-12T17:26:03.482Z,17.37
2022-12-12T17:28:33.536Z,18.27
2022-12-12T17:31:01.215Z,16.60
2022-12-12T17:33:28.534Z,16.27
2022-12-12T17:36:08.420Z,17.60
2022-12-12T17:38:35.198Z,17.47
2022-12-12T17:41:10.707Z,16.90
2022-12-12T17:43:38.344Z,17.93
2022-12-12T17:46:15.387Z,17.80
2022-12-12T17:48:46.690Z,17.30
2022-12-12T17:51:17.751Z,16.10
2022-12-12T17:53:44.669Z,17.00
2022-12-12T17:56:18.535Z,19.03
2022-12-12T17:58:47.655Z,16.40
2022-12-12T18:01:24.520Z,16.70
2022-12-12T18:03:52.235Z,16.93
2022-12-12T18:06:21.530Z,17.20
2022-12-12T18:08:49.932Z,17.20
2022-12-12T18:11:25.412Z,16.60
2022-12-12T18:13:54.609Z,16.40
2022-12-12T18:16:23.709Z,17.10
2022-12-12T18:18:51.993Z,17.17
2022-12-12T18:24:12.252Z,17.13
2022-12-12T18:26:39.673Z,15.87
2022-12-12T18:29:08.814Z,18.33
2022-12-12T18:31:36.217Z,18.00
2022-12-12T18:34:03.950Z,16.40
2022-12-12T18:36:34.611Z,17.33
2022-12-12T18:39:08.194Z,16.40
2022-12-12T18:41:50.403Z,16.43
2022-12-12T18:44:33.765Z,17.50
2022-12-12T18:47:12.567Z,18.27
2022-12-12T18:49:47.207Z,16.70
2022-12-12T18:52:16.292Z,16.67
2022-12-12T18:55:10.591Z,16.97
2022-12-12T18:57:37.464Z,15.07
2022-12-12T19:00:08.995Z,15.70
2022-12-12T19:02:38.445Z,16.57
2022-12-12T19:05:06.838Z,13.93
2022-12-12T19:07:33.690Z,15.30
2022-12-12T19:10:00.361Z,15.63
2022-12-12T19:12:27.856Z,12.67
2022-12-12T19:17:42.736Z,15.43
2022-12-12T19:20:09.798Z,14.33
2022-12-12T19:22:51.777Z,16.10
2022-12-12T19:25:19.011Z,16.57
2022-12-12T19:27:45.980Z,17.00
2022-12-12T19:30:15.960Z,16.83
2022-12-12T19:32:43.145Z,17.50
2022-12-12T19:35:10.059Z,19.10
2022-12-12T19:37:37.226Z,19.50
2022-12-12T19:40:04.262Z,17.93
2022-12-12T19:42:30.967Z,18.63
2022-12-12T19:44:57.564Z,18.70
2022-12-12T19:47:24.341Z,18.50
2022-12-12T19:49:51.009Z,17.57
2022-12-12T19:52:18.758Z,19.77
2022-12-12T19:54:45.433Z,17.63
2022-12-12T19:57:12.114Z,18.67
2022-12-12T19:59:38.816Z,20.13
2022-12-12T20:02:06.689Z,17.83
2022-12-12T20:04:33.754Z,18.53
2022-12-12T20:07:00.425Z,19.80
2022-12-12T20:09:29.553Z,20.33
2022-12-12T20:12:00.470Z,19.37
2022-12-12T20:14:31.603Z,20.97
2022-12-12T20:16:59.366Z,18.57
2022-12-12T20:19:27.859Z,20.13
2022-12-12T20:22:03.865Z,19.77
2022-12-12T20:24:33.337Z,19.87
2022-12-12T20:27:03.124Z,18.03
2022-12-12T20:29:30.001Z,19.50
2022-12-12T20:31:56.932Z,20.27
2022-12-12T20:34:24.506Z,20.53
2022-12-12T20:36:51.855Z,21.27
2022-12-12T20:39:20.834Z,20.60
2022-12-12T20:41:49.165Z,21.50
2022-12-12T20:44:16.490Z,17.57
2022-12-12T20:46:45.807Z,19.27
2022-12-12T20:49:19.728Z,19.87
2022-12-12T20:51:55.787Z,17.47
2022-12-12T20:54:24.565Z,17.47
2022-12-12T20:56:53.118Z,17.90
2022-12-12T20:59:19.868Z,20.90
2022-12-12T21:01:47.130Z,18.07
2022-12-12T21:04:14.379Z,18.47
2022-12-12T21:06:44.833Z,19.57
2022-12-12T21:09:17.770Z,18.13
2022-12-12T21:11:47.855Z,18.63
2022-12-12T21:14:14.556Z,19.53
2022-12-12T21:16:41.319Z,20.13
2022-12-12T21:19:11.591Z,20.07
2022-12-12T21:21:40.980Z,20.23
2022-12-12T21:24:08.364Z,21.03
2022-12-12T21:26:35.278Z,20.70
2022-12-12T21:29:03.615Z,18.40
2022-12-12T21:31:36.232Z,19.17
2022-12-12T21:34:04.843Z,19.47
2022-12-12T21:36:32.487Z,18.57
2022-12-12T21:39:00.903Z,17.80
2022-12-12T21:41:28.045Z,19.03
2022-12-12T21:43:59.282Z,18.37
2022-12-12T21:46:29.210Z,18.50
2022-12-12T21:49:15.989Z,18.93
2022-12-12T21:51:43.575Z,18.60
2022-12-12T21:54:12.171Z,16.47
2022-12-12T21:56:39.821Z,16.47
2022-12-12T21:59:06.919Z,18.13
2022-12-12T22:01:34.133Z,16.40
2022-12-12T22:04:01.054Z,18.27
2022-12-12T22:06:35.138Z,16.00
2022-12-12T22:09:06.411Z,16.90
2022-12-12T22:11:41.475Z,17.30
2022-12-12T22:14:19.752Z,17.27
2022-12-12T22:16:46.653Z,16.37
2022-12-12T22:19:15.880Z,17.13
2022-12-12T22:21:47.207Z,15.97
2022-12-12T22:24:15.689Z,16.30
2022-12-12T22:26:48.878Z,16.17
2022-12-12T22:29:20.055Z,15.40
2022-12-12T22:31:49.854Z,14.33
2022-12-12T22:34:21.440Z,14.17
2022-12-12T22:36:48.665Z,13.23
2022-12-12T22:39:25.681Z,15.33
2022-12-12T22:41:54.781Z,12.67
2022-12-12T22:44:24.307Z,14.70
2022-12-12T22:46:53.696Z,14.77
2022-12-12T22:49:25.632Z,14.90
2022-12-12T22:51:56.280Z,15.83
2022-12-12T22:54:23.452Z,14.47
2022-12-12T22:56:50.123Z,17.83
2022-12-12T22:59:16.989Z,14.57
2022-12-12T23:01:43.807Z,16.00
2022-12-12T23:04:14.450Z,15.87
2022-12-12T23:06:41.759Z,15.63
2022-12-12T23:09:16.203Z,15.23
2022-12-12T23:11:45.306Z,14.13
2022-12-12T23:14:19.807Z,17.40
2022-12-12T23:16:47.568Z,14.10
2022-12-12T23:19:17.628Z,15.97
2022-12-12T23:21:45.331Z,15.10
2022-12-12T23:24:13.082Z,15.93
2022-12-12T23:26:40.163Z,13.70
2022-12-12T23:29:10.671Z,15.47
2022-12-12T23:31:38.880Z,16.83
2022-12-12T23:34:16.315Z,15.93
2022-12-12T23:36:44.007Z,14.73
2022-12-12T23:39:12.806Z,15.80
2022-12-12T23:41:40.405Z,14.67
2022-12-12T23:44:07.888Z,16.83
2022-12-12T23:46:36.222Z,12.80
2022-12-12T23:49:13.346Z,15.63
2022-12-12T23:51:41.136Z,13.37
2022-12-12T23:54:13.000Z,15.93
2022-12-12T23:56:40.555Z,14.77
2022-12-12T23:59:09.764Z,14.37
